Terminal Aerodrome Forecast
Issued by NWS Twin Cities, MN

Home | Current Version | Previous Version | Text Only | Print | Product List | Glossary Off
Versions: 1 2 3 4 5 6 7 8 9 10 11 12 13 14 15 16 17 18 19 20 21

000
FTUS43 KMPX 010200 AAA
TAFSTC
TAF AMD
KSTC 010202Z 0102/0124 19010KT P6SM -SHRA SCT035 BKN100
     FM010400 21006KT P6SM SCT030 BKN120
     FM010800 26005KT 4SM BR SCT010 BKN150
     FM011400 31012KT P6SM SCT040=

USA.gov is the U.S. government's official web portal to all federal, state and local government web resources and services.